Time;durP1;ratioP1;P1;durP2;ratioP2;P2;SDS_P1;SDS_P2;PMS_P1;PMS_P2;Temp;Humidity;BMP_temperature;BMP_pressure;BME280_temperature;BME280_humidity;BME280_pressure;Samples;Min_cycle;Max_cycle;Signal;HPM_P1;HPM_P2
2023/05/01 00:01:04;;;;;;;;;22.75;22.75;;;;;15.77;58.09;101261.94;5040147;28;45256;-66
2023/05/01 00:03:30;;;;;;;;;23.75;22.50;;;;;16.07;58.48;101317.97;5041064;28;45320;-66
2023/05/01 00:06:02;;;;;;;;;25.50;25.00;;;;;15.98;58.49;101305.81;5039197;28;45490;-66
2023/05/01 00:08:27;;;;;;;;;22.75;22.50;;;;;16.00;58.62;101312.00;5039148;28;45749;-66
2023/05/01 00:10:53;;;;;;;;;24.75;24.75;;;;;15.78;58.54;101279.81;5040768;28;45241;-66
2023/05/01 00:13:20;;;;;;;;;26.75;25.75;;;;;15.88;58.80;101296.41;5041061;28;45431;-66
2023/05/01 00:15:48;;;;;;;;;27.75;26.00;;;;;15.87;58.98;101300.94;5040471;28;45526;-66
2023/05/01 00:18:13;;;;;;;;;24.00;24.00;;;;;15.67;59.15;101268.63;5022540;28;46012;-66
2023/05/01 00:20:38;;;;;;;;;27.25;24.50;;;;;15.74;59.08;101280.88;5038091;28;45541;-66
2023/05/01 00:23:04;;;;;;;;;24.50;23.25;;;;;15.66;59.44;101274.97;5035387;28;45415;-66
2023/05/01 00:25:30;;;;;;;;;26.25;23.75;;;;;15.63;59.59;101273.28;5041269;28;45576;-66
2023/05/01 00:27:55;;;;;;;;;25.25;25.00;;;;;15.76;59.38;101297.84;5039392;28;45442;-66
2023/05/01 00:30:21;;;;;;;;;23.50;21.25;;;;;15.81;59.77;101303.03;5041794;28;45502;-66
2023/05/01 00:32:46;;;;;;;;;20.50;19.00;;;;;15.78;59.82;101297.78;5040495;28;45411;-66
2023/05/01 00:35:12;;;;;;;;;26.50;24.50;;;;;15.70;59.82;101288.22;5040060;28;46488;-66
2023/05/01 00:37:38;;;;;;;;;27.50;26.25;;;;;15.74;59.70;101299.72;5039703;28;45548;-66
2023/05/01 00:40:04;;;;;;;;;24.50;24.25;;;;;15.52;59.62;101259.44;5041331;28;45511;-66
2023/05/01 00:42:38;;;;;;;;;25.00;22.75;;;;;15.54;59.86;101266.50;5040423;28;45593;-66
2023/05/01 00:45:05;;;;;;;;;25.25;25.25;;;;;15.45;60.11;101240.03;5014074;28;47792;-66
2023/05/01 00:47:31;;;;;;;;;25.25;23.00;;;;;15.46;60.22;101252.50;5038046;28;45753;-66
2023/05/01 00:49:56;;;;;;;;;24.25;22.75;;;;;15.45;59.98;101249.88;5029901;28;45415;-66
2023/05/01 00:52:23;;;;;;;;;25.00;25.00;;;;;15.42;60.16;101239.25;5041277;28;45640;-66
2023/05/01 00:54:51;;;;;;;;;24.50;22.75;;;;;15.40;60.52;101246.53;5041044;28;46438;-66
2023/05/01 00:57:20;;;;;;;;;24.75;24.75;;;;;15.60;60.13;101283.31;5023026;28;45912;-66
2023/05/01 00:59:46;;;;;;;;;29.50;27.25;;;;;15.40;60.09;101251.91;5011029;28;45413;-66
2023/05/01 01:02:12;;;;;;;;;28.75;25.75;;;;;15.34;60.40;101245.00;5041180;28;45540;-66
2023/05/01 01:04:42;;;;;;;;;26.25;22.00;;;;;15.37;60.72;101244.88;5041201;28;45676;-66
2023/05/01 01:07:22;;;;;;;;;26.25;23.25;;;;;15.50;60.38;101264.91;5039543;28;45291;-66
2023/05/01 01:10:10;;;;;;;;;24.00;21.00;;;;;15.28;60.51;101227.28;5030856;28;45469;-66
2023/05/01 01:12:50;;;;;;;;;27.00;20.50;;;;;15.45;60.70;101250.78;5022739;28;46025;-66
2023/05/01 01:15:15;;;;;;;;;23.75;22.50;;;;;15.44;60.94;101254.41;5021598;28;47343;-66
2023/05/01 01:17:52;;;;;;;;;29.75;27.00;;;;;15.42;60.96;101252.72;5050815;28;45325;-66
2023/05/01 01:20:37;;;;;;;;;27.50;27.50;;;;;15.40;60.93;101258.16;5040948;28;45550;-66
2023/05/01 01:23:40;;;;;;;;;23.25;21.25;;;;;15.36;61.35;101249.34;5038596;28;45565;-66
2023/05/01 01:26:32;;;;;;;;;29.00;26.50;;;;;15.33;61.26;101251.31;5031299;28;45519;-66
2023/05/01 01:29:22;;;;;;;;;25.25;25.25;;;;;15.32;61.23;101250.44;5036194;28;45544;-66
2023/05/01 01:32:23;;;;;;;;;20.50;20.50;;;;;15.27;61.21;101241.72;5020880;28;45488;-66
2023/05/01 01:34:52;;;;;;;;;19.25;18.00;;;;;15.14;61.13;101230.59;5018286;28;45717;-66
2023/05/01 01:37:28;;;;;;;;;24.00;22.75;;;;;15.16;61.11;101228.72;5039304;28;45437;-66
2023/05/01 01:40:11;;;;;;;;;23.50;22.75;;;;;15.22;61.11;101238.34;5021320;28;45384;-66
2023/05/01 01:42:41;;;;;;;;;24.50;21.25;;;;;14.94;61.42;101192.97;5038572;28;45658;-66
2023/05/01 01:45:40;;;;;;;;;18.00;18.00;;;;;15.00;61.35;101206.13;5015286;28;45510;-66
2023/05/01 01:48:10;;;;;;;;;20.75;19.50;;;;;15.05;61.84;101217.56;5019162;28;45628;-67
2023/05/01 01:50:37;;;;;;;;;24.00;23.00;;;;;14.92;61.55;101201.09;5016339;28;45721;-66
2023/05/01 01:53:04;;;;;;;;;21.25;21.25;;;;;14.96;62.01;101201.84;5038482;28;45428;-66
2023/05/01 01:55:33;;;;;;;;;22.25;21.25;;;;;14.84;61.78;101194.31;5039600;28;45504;-66
2023/05/01 01:58:01;;;;;;;;;20.75;19.75;;;;;14.96;61.76;101215.28;5039835;28;45652;-66
2023/05/01 02:00:28;;;;;;;;;26.75;24.75;;;;;14.86;61.82;101211.25;5037280;28;45758;-66
2023/05/01 02:02:54;;;;;;;;;27.25;24.00;;;;;14.90;62.01;101218.22;5038959;28;45472;-66
2023/05/01 02:05:20;;;;;;;;;24.00;24.00;;;;;14.83;62.53;101209.53;5040420;28;45304;-66
2023/05/01 02:07:50;;;;;;;;;22.25;21.25;;;;;14.93;62.18;101226.16;5013910;28;46998;-66
2023/05/01 02:10:17;;;;;;;;;22.00;22.00;;;;;14.92;62.34;101235.19;5038510;28;45614;-66
2023/05/01 02:12:45;;;;;;;;;25.75;25.75;;;;;14.82;62.26;101218.56;5021515;28;45377;-66
2023/05/01 02:15:14;;;;;;;;;22.00;19.50;;;;;14.92;62.33;101243.25;5021449;28;45499;-66
2023/05/01 02:17:40;;;;;;;;;23.50;21.75;;;;;14.85;62.29;101234.56;5039462;28;46366;-66
2023/05/01 02:20:09;;;;;;;;;22.25;22.25;;;;;14.79;62.27;101226.75;5039157;28;45407;-66
2023/05/01 02:22:36;;;;;;;;;17.75;17.75;;;;;14.70;62.21;101211.00;5034891;28;45340;-66
2023/05/01 02:25:02;;;;;;;;;24.00;24.00;;;;;14.72;61.91;101212.69;5038744;28;45357;-66
2023/05/01 02:27:46;;;;;;;;;22.50;19.50;;;;;14.89;61.60;101236.16;5037150;28;46198;-66
2023/05/01 02:30:11;;;;;;;;;26.25;22.75;;;;;14.78;61.99;101215.13;5038835;28;45491;-66
2023/05/01 02:32:37;;;;;;;;;19.00;15.50;;;;;14.78;61.61;101219.63;5038944;28;45771;-66
2023/05/01 02:35:02;;;;;;;;;22.50;21.25;;;;;14.72;61.96;101215.38;5021775;28;45508;-66
2023/05/01 02:37:29;;;;;;;;;20.00;19.00;;;;;14.74;61.57;101218.88;5037657;28;46370;-66
2023/05/01 02:39:55;;;;;;;;;20.50;19.75;;;;;14.75;61.75;101214.38;5038204;28;45467;-66
2023/05/01 02:42:24;;;;;;;;;22.75;20.75;;;;;14.75;61.94;101214.38;5036185;28;45372;-66
2023/05/01 02:44:56;;;;;;;;;21.75;21.75;;;;;14.73;61.88;101218.94;5039462;28;45590;-66
2023/05/01 02:47:23;;;;;;;;;23.25;22.50;;;;;14.95;61.57;101257.41;5037870;28;45548;-66
2023/05/01 02:49:50;;;;;;;;;21.00;19.25;;;;;14.93;61.75;101244.97;5035496;28;45427;-66
2023/05/01 02:52:17;;;;;;;;;15.00;15.00;;;;;14.79;61.44;101232.13;5033911;28;45479;-66
2023/05/01 02:54:44;;;;;;;;;23.25;23.25;;;;;14.93;61.56;101251.22;5037607;28;45439;-66
2023/05/01 02:57:12;;;;;;;;;20.00;19.25;;;;;14.70;61.58;101203.84;5021338;28;47224;-66
2023/05/01 02:59:39;;;;;;;;;22.50;22.00;;;;;14.78;61.53;101233.06;5039180;28;45755;-66
2023/05/01 03:02:05;;;;;;;;;21.25;18.75;;;;;14.78;61.54;101235.75;5039508;28;45313;-66
2023/05/01 03:04:31;;;;;;;;;21.00;19.00;;;;;14.81;61.75;101235.63;5020838;28;45486;-66
2023/05/01 03:06:56;;;;;;;;;24.00;22.75;;;;;14.68;61.50;101215.56;5039165;28;46655;-66
2023/05/01 03:09:21;;;;;;;;;20.50;19.75;;;;;14.85;61.30;101242.63;5038963;28;45301;-66
2023/05/01 03:11:47;;;;;;;;;23.00;22.25;;;;;14.69;61.55;101211.97;5034379;28;45883;-66
2023/05/01 03:14:13;;;;;;;;;24.50;22.00;;;;;14.69;61.47;101218.19;5038879;28;45510;-66
2023/05/01 03:16:39;;;;;;;;;26.25;23.75;;;;;14.74;61.42;101220.69;5039038;28;46322;-66
2023/05/01 03:19:05;;;;;;;;;15.25;15.25;;;;;14.69;61.74;101215.50;5039169;28;45538;-66
2023/05/01 03:21:31;;;;;;;;;20.50;19.00;;;;;14.66;61.45;101212.09;5038276;28;45447;-66
2023/05/01 03:23:57;;;;;;;;;28.25;25.25;;;;;14.70;61.76;101213.69;5025234;28;45410;-66
2023/05/01 03:26:22;;;;;;;;;23.25;19.75;;;;;14.80;61.53;101232.06;5038844;28;45269;-66
2023/05/01 03:28:48;;;;;;;;;22.00;21.00;;;;;14.73;61.53;101218.94;5036383;28;45427;-66
2023/05/01 03:31:14;;;;;;;;;22.25;21.50;;;;;14.72;61.21;101217.22;5036874;28;45472;-66
2023/05/01 03:33:39;;;;;;;;;25.00;24.50;;;;;14.70;61.37;101219.97;5016539;28;45321;-66
2023/05/01 03:36:05;;;;;;;;;23.75;23.00;;;;;14.66;61.43;101207.56;5031454;28;45994;-66
2023/05/01 03:38:31;;;;;;;;;27.00;27.00;;;;;14.72;61.84;101227.97;5038547;28;45278;-66
2023/05/01 03:40:58;;;;;;;;;27.50;26.50;;;;;14.70;61.88;101225.34;5037498;28;45418;-66
2023/05/01 03:43:24;;;;;;;;;27.50;26.25;;;;;14.67;62.18;101228.13;5026903;28;45408;-66
2023/05/01 03:45:50;;;;;;;;;26.50;25.50;;;;;14.61;62.54;101223.88;5037330;28;45430;-66
2023/05/01 03:48:19;;;;;;;;;27.75;26.00;;;;;14.51;62.26;101211.75;5035494;28;45380;-66
2023/05/01 03:50:45;;;;;;;;;30.75;27.25;;;;;14.65;62.47;101243.47;5036901;28;45430;-66
2023/05/01 03:53:12;;;;;;;;;31.25;29.25;;;;;14.68;62.51;101248.69;5035157;28;45464;-66
2023/05/01 03:55:37;;;;;;;;;29.75;29.75;;;;;14.57;62.52;101232.13;5012575;28;47377;-66
2023/05/01 03:58:02;;;;;;;;;32.75;31.00;;;;;14.75;63.04;101260.94;5038297;28;45519;-66
2023/05/01 04:00:28;;;;;;;;;34.75;31.50;;;;;14.75;63.13;101263.63;5018892;28;45435;-66
2023/05/01 04:02:55;;;;;;;;;37.00;32.00;;;;;14.52;63.13;101224.25;5020388;28;45431;-66
2023/05/01 04:05:21;;;;;;;;;35.75;33.00;;;;;14.49;63.19;101224.38;5019442;28;48686;-66
2023/05/01 04:07:46;;;;;;;;;37.00;34.25;;;;;14.51;63.25;101229.69;5036152;28;45746;-66
2023/05/01 04:10:12;;;;;;;;;30.50;29.00;;;;;14.52;63.62;101221.56;5030673;28;45419;-66
2023/05/01 04:12:37;;;;;;;;;37.75;32.75;;;;;14.58;63.47;101240.13;5037342;28;45507;-66
2023/05/01 04:15:03;;;;;;;;;41.75;34.25;;;;;14.53;63.47;101233.16;5036758;28;46295;-66
2023/05/01 04:17:29;;;;;;;;;41.75;35.25;;;;;14.51;63.49;101230.53;5036986;28;45440;-66
2023/05/01 04:19:54;;;;;;;;;39.25;34.25;;;;;14.44;63.86;101215.63;5038492;28;45324;-66
2023/05/01 04:22:23;;;;;;;;;41.25;35.00;;;;;14.67;63.64;101260.38;5034788;28;45483;-66
2023/05/01 04:24:48;;;;;;;;;45.25;36.75;;;;;14.45;63.85;101226.31;5036172;28;45387;-66
2023/05/01 04:27:14;;;;;;;;;38.50;32.75;;;;;14.50;64.11;101234.19;5036442;28;45543;-66
2023/05/01 04:29:40;;;;;;;;;45.00;37.00;;;;;14.41;64.04;101229.16;5038351;28;45414;-66
2023/05/01 04:32:06;;;;;;;;;46.25;37.50;;;;;14.48;64.39;101251.28;5037219;28;45404;-66
2023/05/01 04:34:31;;;;;;;;;46.75;38.75;;;;;14.60;64.25;101264.25;5018572;28;47171;-66
2023/05/01 04:36:57;;;;;;;;;43.75;37.50;;;;;14.58;64.35;101269.66;5035957;28;45599;-66
2023/05/01 04:39:22;;;;;;;;;44.25;37.75;;;;;14.40;64.42;101247.09;5016501;28;45456;-66
2023/05/01 04:41:48;;;;;;;;;43.00;36.00;;;;;14.33;64.51;101232.16;5036921;28;45339;-66
2023/05/01 04:44:14;;;;;;;;;48.75;40.50;;;;;14.48;64.60;101262.91;5038524;28;45254;-66
2023/05/01 04:46:39;;;;;;;;;47.25;39.00;;;;;14.36;64.71;101248.16;5040341;28;45296;-66
2023/05/01 04:49:04;;;;;;;;;45.25;37.50;;;;;14.41;64.50;101247.97;5029462;28;45305;-66
2023/05/01 04:51:30;;;;;;;;;43.25;37.00;;;;;14.36;65.13;101248.16;5039753;28;45357;-66
2023/05/01 04:53:55;;;;;;;;;49.25;41.50;;;;;14.37;65.06;101246.34;5041322;28;45675;-66
2023/05/01 04:56:20;;;;;;;;;39.75;34.00;;;;;14.38;65.53;101249.00;5034350;28;45381;-66
2023/05/01 04:58:46;;;;;;;;;54.00;44.25;;;;;14.45;65.02;101266.59;5041390;28;45512;-66
2023/05/01 05:01:11;;;;;;;;;49.75;40.25;;;;;14.52;65.28;101277.09;5023194;28;45446;-66
2023/05/01 05:03:36;;;;;;;;;43.25;37.00;;;;;14.27;65.21;101254.78;5017260;28;47897;-66
2023/05/01 05:06:02;;;;;;;;;45.75;39.75;;;;;14.42;65.40;101269.41;5022141;28;45352;-66
2023/05/01 05:08:28;;;;;;;;;49.00;41.00;;;;;14.30;65.44;101256.47;5040821;28;45545;-66
2023/05/01 05:11:00;;;;;;;;;47.75;40.00;;;;;14.30;65.46;101261.84;5022874;28;45419;-66
2023/05/01 05:13:26;;;;;;;;;51.75;41.75;;;;;14.30;65.70;101251.09;5040937;28;45481;-66
2023/05/01 05:15:52;;;;;;;;;43.00;37.75;;;;;14.36;65.50;101258.03;5044480;28;45663;-66
2023/05/01 05:18:18;;;;;;;;;42.75;36.50;;;;;14.24;65.24;101235.22;5025852;28;45462;-66
2023/05/01 05:20:43;;;;;;;;;52.00;41.50;;;;;14.53;65.68;101286.91;5039827;28;45380;-66
2023/05/01 05:23:09;;;;;;;;;46.25;38.50;;;;;14.37;65.09;101255.28;5039169;28;46508;-66
2023/05/01 05:25:34;;;;;;;;;48.50;37.75;;;;;14.58;65.09;101291.16;5019814;28;45677;-66
2023/05/01 05:28:00;;;;;;;;;52.25;43.50;;;;;14.33;65.48;101247.41;5038866;28;45556;-66
2023/05/01 05:30:26;;;;;;;;;47.25;38.00;;;;;14.62;65.41;101295.50;5039789;28;45605;-66
2023/05/01 05:32:52;;;;;;;;;51.25;41.75;;;;;14.46;65.36;101273.69;5039605;28;46575;-66
2023/05/01 05:35:17;;;;;;;;;50.50;42.00;;;;;14.30;65.27;101244.84;5037827;28;45364;-66
2023/05/01 05:37:42;;;;;;;;;47.75;40.00;;;;;14.40;65.42;101265.91;5039560;28;45887;-66
2023/05/01 05:40:08;;;;;;;;;51.50;40.75;;;;;14.62;65.37;101305.38;5035444;28;45581;-66
2023/05/01 05:42:34;;;;;;;;;50.50;42.25;;;;;14.59;65.69;101292.94;5038092;28;45462;-66
2023/05/01 05:44:59;;;;;;;;;47.00;39.50;;;;;14.45;65.45;101269.28;5039751;28;45408;-66
2023/05/01 05:47:25;;;;;;;;;52.25;43.75;;;;;14.41;65.38;101264.09;5021480;28;45492;-66
2023/05/01 05:49:50;;;;;;;;;51.25;42.75;;;;;14.56;65.49;101293.00;5035767;28;45262;-66
2023/05/01 05:52:16;;;;;;;;;52.50;41.00;;;;;14.46;65.04;101279.06;5039966;28;46462;-66
2023/05/01 05:54:41;;;;;;;;;52.75;41.75;;;;;14.45;65.45;101271.09;5037087;28;45410;-66
2023/05/01 05:57:07;;;;;;;;;50.25;41.25;;;;;14.42;65.37;101265.84;5021655;28;45438;-66
2023/05/01 05:59:32;;;;;;;;;54.25;43.50;;;;;14.45;65.24;101271.09;5040164;28;45555;-66
2023/05/01 06:01:57;;;;;;;;;51.75;43.50;;;;;14.42;65.13;101261.34;5037682;28;45519;-66
2023/05/01 06:04:23;;;;;;;;;52.00;41.50;;;;;14.44;65.29;101274.72;5018594;28;45716;-66
2023/05/01 06:06:48;;;;;;;;;39.50;35.00;;;;;14.64;65.29;101296.28;5038154;28;45577;-66
2023/05/01 06:09:16;;;;;;;;;48.00;39.25;;;;;14.57;64.93;101281.34;5037785;28;45498;-66
2023/05/01 06:11:41;;;;;;;;;51.75;42.00;;;;;14.56;64.97;101279.56;5036523;28;46539;-68
2023/05/01 06:14:06;;;;;;;;;44.00;38.00;;;;;14.41;64.82;101250.66;5034458;28;45490;-69
2023/05/01 06:16:33;;;;;;;;;47.00;38.25;;;;;14.43;64.98;101254.16;5039650;28;45378;-70
2023/05/01 06:18:58;;;;;;;;;47.50;41.00;;;;;14.44;65.36;101256.78;5040815;28;45450;-70
2023/05/01 06:21:24;;;;;;;;;45.00;37.25;;;;;14.46;65.20;101265.63;5039739;28;45437;-70
2023/05/01 06:23:52;;;;;;;;;52.00;42.00;;;;;14.55;65.02;101280.53;5039126;28;45374;-70
2023/05/01 06:26:17;;;;;;;;;52.00;42.00;;;;;14.66;65.03;101298.06;5038573;28;45550;-70
2023/05/01 06:28:43;;;;;;;;;52.00;41.50;;;;;14.36;65.46;101255.34;5038578;28;45456;-70
2023/05/01 06:31:08;;;;;;;;;49.25;41.00;;;;;14.64;65.36;101306.19;5021171;28;46052;-70
2023/05/01 06:33:35;;;;;;;;;53.50;43.25;;;;;14.52;65.67;101285.16;5037845;28;45335;-70
2023/05/01 06:36:01;;;;;;;;;52.00;44.00;;;;;14.44;65.35;101282.78;5038006;28;45496;-70
2023/05/01 06:38:26;;;;;;;;;51.00;41.75;;;;;14.50;65.28;101285.22;5020852;28;45313;-70
2023/05/01 06:40:54;;;;;;;;;47.75;40.25;;;;;14.63;65.43;101305.31;5039344;28;46910;-70
2023/05/01 06:43:20;;;;;;;;;47.50;38.50;;;;;14.70;65.65;101316.69;5018863;28;45623;-69
2023/05/01 06:45:45;;;;;;;;;50.00;41.50;;;;;14.52;65.50;101291.41;5021202;28;45532;-69
2023/05/01 06:48:10;;;;;;;;;52.00;42.75;;;;;14.64;65.35;101316.94;5036691;28;46053;-69
2023/05/01 06:50:36;;;;;;;;;51.25;42.00;;;;;14.54;65.52;101302.94;5034153;28;46419;-69
2023/05/01 06:53:01;;;;;;;;;51.75;43.00;;;;;14.54;65.67;101292.22;5035282;28;45417;-68
2023/05/01 06:55:30;;;;;;;;;51.50;43.00;;;;;14.33;65.84;101268.88;5038005;28;45521;-69
2023/05/01 06:57:56;;;;;;;;;52.75;43.50;;;;;14.60;65.75;101307.22;5036012;28;45504;-68
2023/05/01 07:00:21;;;;;;;;;48.50;41.25;;;;;14.40;65.77;101287.41;5036493;28;46723;-69
2023/05/01 07:02:47;;;;;;;;;49.25;40.25;;;;;14.47;65.62;101290.72;5039324;28;45528;-69
2023/05/01 07:05:12;;;;;;;;;48.75;40.00;;;;;14.58;65.70;101309.06;5037306;28;45495;-69
2023/05/01 07:07:37;;;;;;;;;47.00;39.25;;;;;14.48;65.66;101286.19;5034051;28;45550;-68
2023/05/01 07:10:03;;;;;;;;;47.50;38.75;;;;;14.50;66.13;101289.69;5038502;28;46355;-68
2023/05/01 07:12:28;;;;;;;;;42.25;36.75;;;;;14.43;65.97;101287.28;5039112;28;45368;-69
2023/05/01 07:14:55;;;;;;;;;47.25;39.50;;;;;14.56;66.06;101314.50;5038087;28;45479;-69
2023/05/01 07:17:21;;;;;;;;;45.50;38.50;;;;;14.59;66.12;101313.56;5032976;28;45332;-68
2023/05/01 07:19:47;;;;;;;;;43.00;35.50;;;;;14.75;65.57;101341.56;5018049;28;46268;-68
2023/05/01 07:22:12;;;;;;;;;50.50;41.75;;;;;14.57;65.49;101310.03;5036042;28;45321;-69
2023/05/01 07:24:37;;;;;;;;;45.50;36.25;;;;;14.50;65.65;101289.69;5015523;28;45775;-68
2023/05/01 07:27:03;;;;;;;;;42.50;35.75;;;;;14.73;65.61;101318.38;5044897;28;45370;-68
2023/05/01 07:29:28;;;;;;;;;43.25;34.50;;;;;14.71;65.63;101309.50;5037835;28;46250;-68
2023/05/01 07:31:54;;;;;;;;;44.25;36.50;;;;;14.85;65.25;101328.63;5036883;28;45394;-68
2023/05/01 07:34:20;;;;;;;;;41.75;36.25;;;;;14.96;65.65;101341.63;5037274;28;45575;-68
2023/05/01 07:36:45;;;;;;;;;42.75;36.00;;;;;14.75;65.91;101298.56;5036436;28;45446;-68
2023/05/01 07:39:11;;;;;;;;;44.00;36.75;;;;;14.80;65.45;101299.25;5035034;28;46521;-68
2023/05/01 07:41:36;;;;;;;;;47.75;38.50;;;;;14.98;65.55;101326.28;5037485;28;45620;-68
2023/05/01 07:44:01;;;;;;;;;49.25;40.50;;;;;14.94;65.54;101319.31;5036642;28;45855;-68
2023/05/01 07:46:27;;;;;;;;;46.50;36.50;;;;;14.84;65.67;101291.06;5038503;28;45452;-68
2023/05/01 07:48:52;;;;;;;;;49.00;39.50;;;;;15.00;65.42;101317.25;5031939;28;45536;-68
2023/05/01 07:51:17;;;;;;;;;38.75;32.50;;;;;14.86;65.18;101294.56;5017947;28;45444;-68
2023/05/01 07:53:45;;;;;;;;;41.25;36.25;;;;;15.00;64.77;101310.97;5033766;28;45636;-68
2023/05/01 07:56:10;;;;;;;;;44.50;35.75;;;;;15.06;65.36;101316.09;5028949;28;45491;-68
2023/05/01 07:58:36;;;;;;;;;37.50;33.00;;;;;15.08;64.66;101321.41;5035389;28;46497;-68
2023/05/01 08:01:02;;;;;;;;;38.25;31.00;;;;;15.23;65.22;101341.41;5012874;28;45381;-65
2023/05/01 08:03:29;;;;;;;;;35.50;32.50;;;;;15.28;65.04;101353.72;5036628;28;45530;-65
2023/05/01 08:05:55;;;;;;;;;37.50;31.25;;;;;15.21;65.33;101343.28;5014648;28;45580;-65
2023/05/01 08:08:20;;;;;;;;;34.50;31.25;;;;;15.08;65.10;101324.09;5037962;28;46404;-65
2023/05/01 08:10:46;;;;;;;;;35.25;32.75;;;;;15.11;65.13;101330.22;5036970;28;45459;-68
2023/05/01 08:13:12;;;;;;;;;36.50;33.00;;;;;15.11;64.76;101327.53;5038302;28;45449;-68
2023/05/01 08:15:52;;;;;;;;;;;;;;;;;;;;;
2023/05/01 08:18:20;;;;;;;;;27.25;25.25;;;;;15.31;64.90;101372.41;5041906;28;75266;-65
2023/05/01 08:20:47;;;;;;;;;27.00;24.75;;;;;15.12;64.71;101334.66;5039343;28;45365;-65
2023/05/01 08:23:13;;;;;;;;;27.25;26.50;;;;;15.05;65.00;101321.53;5042785;28;45511;-65
2023/05/01 08:25:38;;;;;;;;;28.50;26.00;;;;;15.23;64.79;101344.09;5038797;28;45477;-65
2023/05/01 08:28:04;;;;;;;;;25.25;25.25;;;;;15.12;64.60;101340.03;5035329;28;45805;-65
2023/05/01 08:30:30;;;;;;;;;25.75;24.25;;;;;15.09;64.71;101328.56;5047145;28;45439;-65
2023/05/01 08:32:56;;;;;;;;;27.50;26.00;;;;;15.07;64.21;101320.53;5038971;28;45538;-65
2023/05/01 08:35:21;;;;;;;;;20.00;19.25;;;;;15.24;64.49;101348.53;5039122;28;45269;-65
2023/05/01 08:37:46;;;;;;;;;22.75;22.00;;;;;15.21;64.61;101341.47;5042606;28;45530;-65
2023/05/01 08:40:13;;;;;;;;;19.00;19.00;;;;;15.28;64.52;101347.47;5040834;28;45379;-65
2023/05/01 08:42:39;;;;;;;;;26.00;21.00;;;;;15.18;64.15;101336.22;5040606;28;45390;-65
2023/05/01 08:45:07;;;;;;;;;21.00;17.75;;;;;15.22;64.56;101334.25;5037756;28;45533;-65
2023/05/01 08:47:37;;;;;;;;;21.25;19.00;;;;;15.15;64.91;101326.47;5033021;28;46231;-65
2023/05/01 08:50:03;;;;;;;;;19.50;13.00;;;;;15.42;64.75;101366.59;5031410;28;45800;-65
2023/05/01 08:52:29;;;;;;;;;15.00;14.50;;;;;15.28;64.89;101340.25;5040304;28;45795;-65
2023/05/01 08:54:56;;;;;;;;;18.50;16.25;;;;;15.32;64.84;101341.03;5038670;28;45395;-65
2023/05/01 08:57:22;;;;;;;;;23.00;20.25;;;;;15.27;64.99;101332.25;5035779;28;46459;-65
2023/05/01 08:59:49;;;;;;;;;16.50;15.75;;;;;15.38;64.96;101352.41;5012751;28;45381;-65
2023/05/01 09:02:16;;;;;;;;;22.50;20.25;;;;;15.51;64.92;101370.69;5028556;28;45585;-65
2023/05/01 09:04:41;;;;;;;;;27.00;23.00;;;;;15.36;64.91;101350.69;5034039;28;45966;-65
2023/05/01 09:07:08;;;;;;;;;24.50;20.25;;;;;15.60;65.20;101390.94;5019012;28;47301;-65
2023/05/01 09:09:33;;;;;;;;;20.75;20.75;;;;;15.46;64.87;101368.19;5039430;28;45856;-65
2023/05/01 09:12:07;;;;;;;;;26.75;23.75;;;;;15.50;64.84;101363.56;5038676;28;45749;-65
2023/05/01 09:14:33;;;;;;;;;25.25;19.25;;;;;15.43;64.91;101352.19;5038258;28;45528;-65
2023/05/01 09:16:58;;;;;;;;;21.00;20.75;;;;;15.47;64.90;101344.84;5034347;28;46318;-65
2023/05/01 09:19:25;;;;;;;;;20.75;20.50;;;;;15.52;65.25;101361.69;5018504;28;45849;-66
2023/05/01 09:21:50;;;;;;;;;19.75;16.25;;;;;15.46;64.87;101351.19;5020382;28;45554;-67
2023/05/01 09:24:16;;;;;;;;;20.25;20.25;;;;;15.48;65.04;101352.84;5038337;28;45533;-66
2023/05/01 09:26:42;;;;;;;;;19.25;17.25;;;;;15.49;65.25;101351.06;5039063;28;46125;-66
2023/05/01 09:29:09;;;;;;;;;19.25;19.00;;;;;15.66;65.47;101383.47;5037636;28;45515;-66
2023/05/01 09:31:35;;;;;;;;;19.50;17.75;;;;;15.43;65.46;101348.63;5039430;28;45332;-65
2023/05/01 09:34:05;;;;;;;;;17.50;16.25;;;;;15.64;65.45;101396.13;5021114;28;45590;-70
2023/05/01 09:36:32;;;;;;;;;15.50;13.50;;;;;15.68;65.36;101400.44;5009965;28;48433;-68
2023/05/01 09:38:59;;;;;;;;;13.75;12.50;;;;;15.69;65.25;101401.31;5014470;28;45396;-65
2023/05/01 09:41:26;;;;;;;;;16.75;15.75;;;;;15.62;65.34;101395.34;5034269;28;45732;-65
2023/05/01 09:43:53;;;;;;;;;16.75;14.50;;;;;15.48;65.50;101369.00;5039059;28;45348;-65
2023/05/01 09:46:20;;;;;;;;;17.25;17.00;;;;;15.42;65.57;101342.38;5031125;28;45565;-65
2023/05/01 09:48:57;;;;;;;;;15.25;14.00;;;;;15.59;65.44;101373.94;5035138;28;45456;-65
2023/05/01 09:51:31;;;;;;;;;18.75;17.75;;;;;15.69;65.04;101390.56;5030010;28;45491;-66
2023/05/01 09:53:59;;;;;;;;;15.25;14.75;;;;;15.55;65.44;101365.13;5037918;28;45657;-66
2023/05/01 09:56:26;;;;;;;;;17.25;15.50;;;;;15.61;65.18;101371.19;5039047;28;46535;-65
2023/05/01 09:58:52;;;;;;;;;17.00;13.75;;;;;15.78;65.83;101400.94;5020295;28;45562;-66
2023/05/01 10:01:37;;;;;;;;;18.25;15.00;;;;;15.61;65.53;101368.50;5034936;28;46289;-66
2023/05/01 10:04:03;;;;;;;;;12.75;12.50;;;;;15.86;65.91;101395.22;5033302;28;45389;-66
2023/05/01 10:06:28;;;;;;;;;13.50;13.50;;;;;15.76;65.68;101384.00;5038386;28;46146;-66
2023/05/01 10:08:53;;;;;;;;;10.25;9.75;;;;;15.77;65.29;101369.59;5013489;28;45656;-65
2023/05/01 10:11:19;;;;;;;;;10.50;9.50;;;;;15.78;65.83;101370.47;5034588;28;45529;-65
2023/05/01 10:13:44;;;;;;;;;14.75;11.50;;;;;15.90;65.65;101391.44;5038715;28;45495;-65
2023/05/01 10:16:29;;;;;;;;;8.75;8.75;;;;;15.87;65.40;101373.63;5036951;28;45467;-65
2023/05/01 10:18:57;;;;;;;;;9.50;9.00;;;;;15.78;65.63;101360.56;5038622;28;45727;-65
2023/05/01 10:21:22;;;;;;;;;11.00;10.00;;;;;15.83;65.18;101369.31;5035764;28;45554;-66
2023/05/01 10:23:47;;;;;;;;;8.75;8.75;;;;;15.90;65.30;101386.97;5038315;28;45441;-66
2023/05/01 10:26:15;;;;;;;;;13.25;11.00;;;;;15.90;65.17;101378.88;5036290;28;45503;-65
2023/05/01 10:28:42;;;;;;;;;14.75;11.00;;;;;15.95;65.71;101375.09;5038783;28;45493;-66
2023/05/01 10:31:10;;;;;;;;;13.50;13.00;;;;;15.90;65.41;101367.22;5038375;28;45646;-66
2023/05/01 10:33:35;;;;;;;;;14.25;12.25;;;;;15.90;65.24;101367.22;5020899;28;45563;-65
2023/05/01 10:36:02;;;;;;;;;13.50;13.50;;;;;15.87;65.51;101348.50;5039424;28;45422;-66
2023/05/01 10:38:35;;;;;;;;;15.25;14.25;;;;;15.98;65.49;101372.28;5038723;28;45757;-65
2023/05/01 10:41:00;;;;;;;;;14.25;13.25;;;;;15.88;65.06;101356.50;5033412;28;45400;-66
2023/05/01 10:43:28;;;;;;;;;12.00;11.00;;;;;15.99;65.38;101368.63;5036481;28;45436;-70
2023/05/01 10:46:15;;;;;;;;;13.25;11.00;;;;;16.03;65.64;101370.25;5039143;28;45565;-71
2023/05/01 10:48:43;;;;;;;;;10.75;9.75;;;;;16.22;65.67;101399.91;5039071;28;45394;-70
2023/05/01 10:51:11;;;;;;;;;15.25;12.75;;;;;16.05;65.90;101365.66;5039668;28;45560;-70
2023/05/01 10:53:42;;;;;;;;;8.50;5.75;;;;;16.06;65.53;101359.34;5039291;28;45686;-70
2023/05/01 10:56:24;;;;;;;;;14.25;11.75;;;;;16.28;65.42;101389.72;5035084;28;45736;-75
2023/05/01 10:58:52;;;;;;;;;16.25;13.50;;;;;16.33;65.72;101392.19;5038812;28;45470;-70
2023/05/01 11:01:46;;;;;;;;;13.75;12.25;;;;;16.35;66.11;101386.75;5014071;28;45299;-70
2023/05/01 11:04:17;;;;;;;;;14.25;12.25;;;;;16.37;66.33;101387.53;5038778;28;45607;-66
2023/05/01 11:07:09;;;;;;;;;13.25;13.25;;;;;16.40;66.04;101382.00;5019009;28;46605;-66
2023/05/01 11:09:54;;;;;;;;;14.00;11.50;;;;;16.30;65.75;101362.72;5033590;28;45741;-65
2023/05/01 11:12:47;;;;;;;;;15.00;13.75;;;;;16.46;65.57;101382.59;5031834;28;45469;-66
2023/05/01 11:15:27;;;;;;;;;10.75;10.75;;;;;16.31;65.76;101353.69;5033673;28;45563;-66